• Join FlightAware (Why Join?)
  • Login
  • US Flag 
07:36PM EDT


 

Airport Tracker/Info


-or-


 

Live Flight TrackerFlight Track Log ✈ FIV568 ✈ 22-Aug-2013 ✈ KABI - KPDK

Flight Track Log - Related Links

Times and Time Zones

All times are in EDT time to prevent confusion due to time zone crossing. See the FIV568 flight status page for this flight to view local times or setup timezone preferences in your user account.

Time Position Orientation Groundspeed Altitude Reporting Facility
EDT Latitude Longitude Course Direction KTS MPH feet Rate Location/Type
12:32AM 32.4164 -99.5447 77° East 260 299 8,000  Level Fort Worth Center
12:33AM 32.4347 -99.4492 77° East 291 335 10,200 2,100 Climbing Fort Worth Center
12:34AM 32.4531 -99.3486 78° East 323 372 12,200 2,040 Climbing Fort Worth Center
12:35AM 32.4733 -99.2456 77° East 323 372 14,300 1,860 Climbing Fort Worth Center
12:36AM 32.4936 -99.1350 78° East 328 377 16,000 1,560 Climbing Fort Worth Center
12:37AM 32.5139 -99.0247 78° East 333 383 17,500 1,440 Climbing Fort Worth Center
12:38AM 32.5342 -98.9117 78° East 338 389 18,900 1,380 Climbing Fort Worth Center
12:39AM 32.5564 -98.7961 77° East 344 396 20,300 1,320 Climbing Fort Worth Center
12:40AM 32.5764 -98.6806 78° East 349 402 21,600 1,140 Climbing Fort Worth Center
12:41AM 32.5964 -98.5625 79° East 359 413 22,600 1,020 Climbing Fort Worth Center
12:42AM 32.6161 -98.4419 79° East 359 413 23,700 1,020 Climbing Fort Worth Center
12:43AM 32.6317 -98.3189 81° East 365 420 24,700 960 Climbing Fort Worth Center
12:44AM 32.6492 -98.1981 80° East 375 432 25,700 960 Climbing Fort Worth Center
12:45AM 32.6667 -98.0722 81° East 375 432 26,700 900 Climbing Fort Worth Center
12:46AM 32.6819 -97.9489 82° East 375 432 27,600 900 Climbing Fort Worth Center
12:47AM 32.6992 -97.8281 80° East 369 425 28,600 960 Climbing Fort Worth Center
12:48AM 32.7142 -97.6997 82° East 369 425 29,600 960 Climbing Fort Worth Center
12:49AM 32.7331 -97.5714 80° East 380 437 30,600 960 Climbing Fort Worth Center
12:50AM 32.7478 -97.4431 82° East 386 444 31,600 960 Climbing Fort Worth Center
12:51AM 32.7644 -97.3122 81° East 386 444 32,600 1,020 Climbing Fort Worth Center
12:52AM 32.7831 -97.1639 81° East 391 450 33,700 960 Climbing Fort Worth Center
12:53AM 32.7972 -97.0478 82° East 400 460 34,600 960 Climbing Fort Worth Center
12:54AM 32.8178 -96.9017 80° East 400 460 35,700 900 Climbing Fort Worth Center
12:55AM 32.8339 -96.7806 81° East 410 472 36,500 900 Climbing Fort Worth Center
12:56AM 32.8497 -96.6469 82° East 410 472 37,500 960 Climbing Fort Worth Center
12:57AM 32.8656 -96.5156 82° East 410 472 38,500 960 Climbing Fort Worth Center
12:58AM 32.8814 -96.3819 82° East 410 472 39,500 960 Climbing Fort Worth Center
12:59AM 32.8969 -96.2481 82° East 410 472 40,500 720 Climbing Fort Worth Center
01:00AM 32.9144 -96.1142 81° East 410 472 41,000 240 Climbing Fort Worth Center
01:01AM 32.9317 -95.9753 82° East 410 472 41,000  Level Fort Worth Center
01:02AM 32.9467 -95.8389 82° East 410 472 41,000  Level Fort Worth Center
01:03AM 32.9639 -95.7050 81° East 410 472 41,000  Level Fort Worth Center
01:04AM 32.9806 -95.5661 82° East 410 472 41,000  Level Fort Worth Center
01:06AM 33.0010 -95.3795 83° East  Level FlightAware Approximate
01:13AM 33.0937 -94.4976 83° East  Level FlightAware Approximate
01:13AM 33.1144 -94.3206 83° East 430 495 41,000  Level Memphis Center
01:14AM 33.1064 -94.3715 83° East  Level FlightAware Approximate
01:14AM 33.1272 -94.1797 84° East 424 488 41,000  Level Memphis Center
01:15AM 33.1190 -94.2453 83° East  Level FlightAware Approximate
01:15AM 33.1397 -94.0364 84° East 424 488 41,000  Level Memphis Center
01:16AM 33.1315 -94.1191 83° East  Level FlightAware Approximate
01:16AM 33.1544 -93.8906 83° East 424 488 41,000  Level Memphis Center
01:17AM 33.1442 -93.9930 83° East  Level FlightAware Approximate
01:17AM 33.1708 -93.7500 82° East 429 494 41,000  Level Memphis Center
01:18AM 33.1569 -93.8667 83° East  Level FlightAware Approximate
01:18AM 33.1872 -93.6089 82° East 429 494 41,000  Level Memphis Center
01:19AM 33.2011 -93.4681 83° East 424 488 41,000  Level Memphis Center
01:20AM 33.2150 -93.3294 83° East 424 488 41,000  Level Memphis Center
01:21AM 33.2286 -93.1908 83° East 424 488 41,000  Level Memphis Center
01:22AM 33.2419 -93.0522 83° East 424 488 41,000  Level Memphis Center
01:23AM 33.2556 -92.9061 84° East 424 488 41,000  Level Memphis Center
01:24AM 33.2686 -92.7697 83° East 418 481 41,000  Level Memphis Center
01:25AM 33.2839 -92.6311 82° East 418 481 41,000  Level Memphis Center
01:26AM 33.2967 -92.4897 84° East 423 487 41,000  Level Memphis Center
01:27AM 33.3117 -92.3483 83° East 423 487 41,000  Level Memphis Center
01:28AM 33.3222 -92.2044 85° East 423 487 41,000  Level Memphis Center
01:29AM 33.3347 -92.0631 84° East 423 487 41,000  Level Memphis Center
01:30AM 33.3511 -91.9214 82° East 423 487 41,000  Level Memphis Center
01:31AM 33.3611 -91.7800 85° East 423 487 41,000  Level Memphis Center
01:32AM 33.3647 -91.6481 88° East 423 487 41,000  Level Memphis Center
01:33AM 33.3806 -91.5067 82° East 428 493 41,000  Level Memphis Center
01:34AM 33.3903 -91.3625 85° East 428 493 41,000  Level Memphis Center
01:35AM 33.4039 -91.2231 83° East 428 493 41,000  Level Memphis Center
01:36AM 33.4150 -91.0789 85° East 428 493 41,000  Level Memphis Center
01:37AM 33.4306 -90.9372 82° East 428 493 41,000  Level Memphis Center
01:38AM 33.4436 -90.7953 84° East 428 493 41,000  Level Memphis Center
01:39AM 33.4586 -90.6511 83° East 428 493 41,000  Level Memphis Center
01:40AM 33.4692 -90.5067 85° East 428 493 41,000  Level Memphis Center
01:41AM 33.4839 -90.3647 83° East 428 493 41,000  Level Memphis Center
01:42AM 33.4964 -90.2253 84° East 423 487 41,000  Level Memphis Center
01:43AM 33.5108 -90.0831 83° East 423 487 41,000  Level Memphis Center
01:44AM 33.5208 -89.9411 85° East 423 487 41,000  Level Memphis Center
01:45AM 33.5347 -89.7964 83° East 428 493 41,000  Level Memphis Center
01:46AM 33.5467 -89.6544 84° East 428 493 41,000  Level Memphis Center
01:47AM 33.5583 -89.5097 84° East 428 493 41,000  Level Memphis Center
01:48AM 33.5697 -89.3650 85° East 428 493 41,000  Level Memphis Center
01:49AM 33.5811 -89.2228 84° East 428 493 41,000  Level Memphis Center
01:50AM 33.5922 -89.0753 85° East 428 493 41,000  Level Memphis Center
01:51AM 33.6031 -88.9306 85° East 428 493 41,000  Level Memphis Center
01:52AM 33.6136 -88.7683 85° East 433 498 41,000  Level Memphis Center
01:53AM 33.6261 -88.6233 84° East 433 498 41,000  Level Memphis Center
01:55AM 33.6497 -88.2961 85° East 431 496 41,000  Level Atlanta Center
01:56AM 33.6589 -88.1517 86° East 437 503 41,000  Level Atlanta Center
01:57AM 33.6700 -88.0025 85° East 437 503 41,000  Level Atlanta Center
01:58AM 33.6789 -87.8556 86° East 437 503 41,000  Level Atlanta Center
01:59AM 33.6917 -87.7039 84° East 442 509 41,000  Level Atlanta Center
02:00AM 33.7003 -87.5569 86° East 442 509 41,000  Level Atlanta Center
02:01AM 33.7086 -87.4075 86° East 442 509 41,000  Level Atlanta Center
02:02AM 33.7189 -87.2581 85° East 442 509 41,000  Level Atlanta Center
02:03AM 33.7308 -87.1086 84° East 442 509 41,000 -540 Level Atlanta Center
02:04AM 33.7408 -86.9617 85° East 442 509 40,000 -1,800 Descending Atlanta Center
02:05AM 33.7483 -86.8169 86° East 442 509 37,500 -2,760 Descending Atlanta Center
02:06AM 33.7583 -86.6497 86° East 442 509 34,500 -2,700 Descending Atlanta Center
02:07AM 33.7653 -86.5075 87° East 440 506 32,100 -2,400 Descending Atlanta Center
02:08AM 33.7744 -86.3631 86° East 435 501 29,700 -2,460 Descending Atlanta Center
02:09AM 33.7811 -86.2181 87° East 435 501 27,200 -2,520 Descending Atlanta Center
02:10AM 33.7900 -86.0733 86° East 435 501 24,700 -2,580 Descending Atlanta Center
02:11AM 33.7986 -85.9286 86° East 435 501 22,100 -2,220 Descending Atlanta Center
02:12AM 33.8064 -85.8164 85° East 430 495 20,300 -2,160 Descending Atlanta Center
02:13AM 33.8106 -85.6714 88° East 412 474 17,800 -2,220 Descending Atlanta Center
02:14AM 33.8164 -85.5439 87° East 387 445 15,900 -2,040 Descending Atlanta Center
02:15AM 33.8242 -85.4192 86° East 379 436 13,800 -2,040 Descending Atlanta Center
02:16AM 33.8294 -85.3017 87° East 358 412 11,900 -1,860 Descending Atlanta Center
02:17AM 33.8347 -85.1842 87° East 337 388 10,100 -1,800 Descending Atlanta Center
02:18AM 33.8525 -85.0894 77° East 303 349 8,400 -1,500 Descending Atlanta Center
02:19AM 33.8761 -85.0022 72° East 275 316 7,100 -660 Descending Atlanta Center
02:20AM 33.8975 -84.9122 74° East 275 316 7,100 -300 Level Atlanta Center
02:21AM 33.9211 -84.8250 72° East 275 316 6,500 -1,140 Descending Atlanta Center
02:22AM 33.9425 -84.7375 74° East 270 311 4,900 -1,560 Descending Atlanta Center
02:23AM 33.9639 -84.6475 74° East 270 311 3,400 -900 Descending Atlanta Center
02:24AM 33.9831 -84.5750 72° East 265 305 3,100 -120 Descending Atlanta Center
02:27AM 34.0333 -84.3667 74° East 237 273 3,000 -60 Descending Atlanta TRACON
02:28AM 34.0500 -84.3000 73° East 215 247 3,000  Level Atlanta TRACON
02:29AM 34.0167 -84.2500 129° Southeast 207 238 3,000 -60 Level Atlanta TRACON
02:30AM 33.9667 -84.2500 180° South 177 204 2,900 -480 Descending Atlanta TRACON
02:31AM 33.9333 -84.2667 203° Southwest 135 155 2,100 -780 Descending Atlanta TRACON
02:32AM 33.9000 -84.2833 203° Southwest 127 146 1,400 -720 Descending Atlanta TRACON
02:34AM 33.8667 -84.3000 195° South  Level FlightAware Approximate
02:41AM 33.8756 -84.3020 195° South  Level Estimated